<?xml version="1.0" encoding="UTF-8" standalone="no" ?>
<gpx xmlns="http://www.topografix.com/GPX/1/1" xmlns:xsi="http://www.w3.org/2001/XMLSchema-instance" xsi:schemaLocation="http://www.topografix.com/GPX/1/1 http://www.topografix.com/GPX/1/1/gpx.xsd" version="1.1" creator="VisuGPX - https://www.visugpx.com">
  <metadata>
    <name>Coueron_MemoireOuvriereVisiteGuidee_8km</name>
    <desc><![CDATA[gnerando idor:9677901_9749545]]></desc>
  </metadata>
  <trk>
    <name><![CDATA[Coueron_VisiteGuidee_8.3km-9749545]]></name>
    <extensions>
      <line xmlns="http://www.topografix.com/GPX/gpx_style/0/2">
        <color>0000FF</color>
        <width>4</width>
      </line>
    </extensions>
    <trkseg>
      <trkpt lat="47.20855" lon="-1.72003">
        <ele>7</ele>
        <time>2023-11-01T14:54:41Z</time>
      </trkpt>
      <trkpt lat="47.20832" lon="-1.71352">
        <ele>5</ele>
        <time>2023-11-01T15:04:32Z</time>
      </trkpt>
      <trkpt lat="47.20859" lon="-1.71297">
        <ele>5</ele>
        <time>2023-11-01T15:05:33Z</time>
      </trkpt>
      <trkpt lat="47.2094" lon="-1.71258">
        <ele>6</ele>
        <time>2023-11-01T15:07:27Z</time>
      </trkpt>
      <trkpt lat="47.20996" lon="-1.71187">
        <ele>8</ele>
        <time>2023-11-01T15:09:06Z</time>
      </trkpt>
      <trkpt lat="47.21022" lon="-1.711">
        <ele>7</ele>
        <time>2023-11-01T15:10:32Z</time>
      </trkpt>
      <trkpt lat="47.2104" lon="-1.71136">
        <ele>9</ele>
        <time>2023-11-01T15:11:13Z</time>
      </trkpt>
      <trkpt lat="47.21057" lon="-1.71145">
        <ele>10</ele>
        <time>2023-11-01T15:11:37Z</time>
      </trkpt>
      <trkpt lat="47.21068" lon="-1.7117">
        <ele>11</ele>
        <time>2023-11-01T15:12:04Z</time>
      </trkpt>
      <trkpt lat="47.21077" lon="-1.71194">
        <ele>13</ele>
        <time>2023-11-01T15:12:28Z</time>
      </trkpt>
      <trkpt lat="47.21087" lon="-1.71217">
        <ele>15</ele>
        <time>2023-11-01T15:12:53Z</time>
      </trkpt>
      <trkpt lat="47.211" lon="-1.71239">
        <ele>17</ele>
        <time>2023-11-01T15:13:20Z</time>
      </trkpt>
      <trkpt lat="47.21113" lon="-1.71261">
        <ele>18</ele>
        <time>2023-11-01T15:13:46Z</time>
      </trkpt>
      <trkpt lat="47.21124" lon="-1.71283">
        <ele>19</ele>
        <time>2023-11-01T15:14:11Z</time>
      </trkpt>
      <trkpt lat="47.21136" lon="-1.71304">
        <ele>20</ele>
        <time>2023-11-01T15:14:36Z</time>
      </trkpt>
      <trkpt lat="47.21135" lon="-1.71331">
        <ele>20</ele>
        <time>2023-11-01T15:15:00Z</time>
      </trkpt>
      <trkpt lat="47.2112" lon="-1.71348">
        <ele>19</ele>
        <time>2023-11-01T15:15:26Z</time>
      </trkpt>
      <trkpt lat="47.21113" lon="-1.71374">
        <ele>18</ele>
        <time>2023-11-01T15:15:51Z</time>
      </trkpt>
      <trkpt lat="47.21108" lon="-1.71403">
        <ele>17</ele>
        <time>2023-11-01T15:16:18Z</time>
      </trkpt>
      <trkpt lat="47.21108" lon="-1.71431">
        <ele>17</ele>
        <time>2023-11-01T15:16:43Z</time>
      </trkpt>
      <trkpt lat="47.21106" lon="-1.71461">
        <ele>17</ele>
        <time>2023-11-01T15:17:11Z</time>
      </trkpt>
      <trkpt lat="47.21107" lon="-1.71517">
        <ele>20</ele>
        <time>2023-11-01T15:18:01Z</time>
      </trkpt>
      <trkpt lat="47.21107" lon="-1.71545">
        <ele>22</ele>
        <time>2023-11-01T15:18:27Z</time>
      </trkpt>
      <trkpt lat="47.21106" lon="-1.71575">
        <ele>23</ele>
        <time>2023-11-01T15:18:54Z</time>
      </trkpt>
      <trkpt lat="47.21106" lon="-1.71665">
        <ele>28</ele>
        <time>2023-11-01T15:20:16Z</time>
      </trkpt>
      <trkpt lat="47.21106" lon="-1.71694">
        <ele>28</ele>
        <time>2023-11-01T15:20:42Z</time>
      </trkpt>
      <trkpt lat="47.21102" lon="-1.7172">
        <ele>28</ele>
        <time>2023-11-01T15:21:06Z</time>
      </trkpt>
      <trkpt lat="47.211" lon="-1.71749">
        <ele>28</ele>
        <time>2023-11-01T15:21:33Z</time>
      </trkpt>
      <trkpt lat="47.21102" lon="-1.71806">
        <ele>28</ele>
        <time>2023-11-01T15:22:24Z</time>
      </trkpt>
      <trkpt lat="47.21104" lon="-1.71834">
        <ele>28</ele>
        <time>2023-11-01T15:22:50Z</time>
      </trkpt>
      <trkpt lat="47.2111" lon="-1.71862">
        <ele>28</ele>
        <time>2023-11-01T15:23:16Z</time>
      </trkpt>
      <trkpt lat="47.21112" lon="-1.7189">
        <ele>27</ele>
        <time>2023-11-01T15:23:42Z</time>
      </trkpt>
      <trkpt lat="47.21108" lon="-1.71917">
        <ele>27</ele>
        <time>2023-11-01T15:24:07Z</time>
      </trkpt>
      <trkpt lat="47.21108" lon="-1.71946">
        <ele>26</ele>
        <time>2023-11-01T15:24:33Z</time>
      </trkpt>
      <trkpt lat="47.21102" lon="-1.71975">
        <ele>26</ele>
        <time>2023-11-01T15:25:01Z</time>
      </trkpt>
      <trkpt lat="47.2109" lon="-1.72">
        <ele>25</ele>
        <time>2023-11-01T15:25:29Z</time>
      </trkpt>
      <trkpt lat="47.21072" lon="-1.72016">
        <ele>24</ele>
        <time>2023-11-01T15:25:57Z</time>
      </trkpt>
      <trkpt lat="47.21052" lon="-1.72015">
        <ele>23</ele>
        <time>2023-11-01T15:26:23Z</time>
      </trkpt>
      <trkpt lat="47.21033" lon="-1.72012">
        <ele>23</ele>
        <time>2023-11-01T15:26:49Z</time>
      </trkpt>
      <trkpt lat="47.21013" lon="-1.72017">
        <ele>22</ele>
        <time>2023-11-01T15:27:16Z</time>
      </trkpt>
      <trkpt lat="47.2101" lon="-1.72044">
        <ele>20</ele>
        <time>2023-11-01T15:27:41Z</time>
      </trkpt>
      <trkpt lat="47.2101" lon="-1.72072">
        <ele>19</ele>
        <time>2023-11-01T15:28:06Z</time>
      </trkpt>
      <trkpt lat="47.21009" lon="-1.72099">
        <ele>19</ele>
        <time>2023-11-01T15:28:31Z</time>
      </trkpt>
      <trkpt lat="47.21014" lon="-1.72125">
        <ele>19</ele>
        <time>2023-11-01T15:28:55Z</time>
      </trkpt>
      <trkpt lat="47.21022" lon="-1.72153">
        <ele>20</ele>
        <time>2023-11-01T15:29:23Z</time>
      </trkpt>
      <trkpt lat="47.21027" lon="-1.72181">
        <ele>20</ele>
        <time>2023-11-01T15:29:49Z</time>
      </trkpt>
      <trkpt lat="47.2103" lon="-1.72207">
        <ele>20</ele>
        <time>2023-11-01T15:30:13Z</time>
      </trkpt>
      <trkpt lat="47.21019" lon="-1.72231">
        <ele>19</ele>
        <time>2023-11-01T15:30:39Z</time>
      </trkpt>
      <trkpt lat="47.21019" lon="-1.7226">
        <ele>19</ele>
        <time>2023-11-01T15:31:05Z</time>
      </trkpt>
      <trkpt lat="47.21022" lon="-1.72286">
        <ele>19</ele>
        <time>2023-11-01T15:31:29Z</time>
      </trkpt>
      <trkpt lat="47.21022" lon="-1.72313">
        <ele>18</ele>
        <time>2023-11-01T15:31:54Z</time>
      </trkpt>
      <trkpt lat="47.21027" lon="-1.72339">
        <ele>19</ele>
        <time>2023-11-01T15:32:18Z</time>
      </trkpt>
      <trkpt lat="47.21026" lon="-1.72367">
        <ele>19</ele>
        <time>2023-11-01T15:32:44Z</time>
      </trkpt>
      <trkpt lat="47.21027" lon="-1.72396">
        <ele>19</ele>
        <time>2023-11-01T15:33:10Z</time>
      </trkpt>
      <trkpt lat="47.21033" lon="-1.72426">
        <ele>19</ele>
        <time>2023-11-01T15:33:38Z</time>
      </trkpt>
      <trkpt lat="47.21038" lon="-1.72456">
        <ele>18</ele>
        <time>2023-11-01T15:34:06Z</time>
      </trkpt>
      <trkpt lat="47.21051" lon="-1.7251">
        <ele>17</ele>
        <time>2023-11-01T15:34:58Z</time>
      </trkpt>
      <trkpt lat="47.21057" lon="-1.72537">
        <ele>17</ele>
        <time>2023-11-01T15:35:24Z</time>
      </trkpt>
      <trkpt lat="47.21067" lon="-1.72561">
        <ele>17</ele>
        <time>2023-11-01T15:35:49Z</time>
      </trkpt>
      <trkpt lat="47.21076" lon="-1.72586">
        <ele>17</ele>
        <time>2023-11-01T15:36:15Z</time>
      </trkpt>
      <trkpt lat="47.21081" lon="-1.72613">
        <ele>17</ele>
        <time>2023-11-01T15:36:40Z</time>
      </trkpt>
      <trkpt lat="47.21086" lon="-1.72638">
        <ele>16</ele>
        <time>2023-11-01T15:37:04Z</time>
      </trkpt>
      <trkpt lat="47.21088" lon="-1.72668">
        <ele>16</ele>
        <time>2023-11-01T15:37:31Z</time>
      </trkpt>
      <trkpt lat="47.21093" lon="-1.72695">
        <ele>16</ele>
        <time>2023-11-01T15:37:57Z</time>
      </trkpt>
      <trkpt lat="47.21088" lon="-1.72722">
        <ele>16</ele>
        <time>2023-11-01T15:38:22Z</time>
      </trkpt>
      <trkpt lat="47.21074" lon="-1.7274">
        <ele>16</ele>
        <time>2023-11-01T15:38:47Z</time>
      </trkpt>
      <trkpt lat="47.21067" lon="-1.72766">
        <ele>15</ele>
        <time>2023-11-01T15:39:12Z</time>
      </trkpt>
      <trkpt lat="47.21057" lon="-1.72791">
        <ele>14</ele>
        <time>2023-11-01T15:39:39Z</time>
      </trkpt>
      <trkpt lat="47.21047" lon="-1.72816">
        <ele>14</ele>
        <time>2023-11-01T15:40:05Z</time>
      </trkpt>
      <trkpt lat="47.21029" lon="-1.72822">
        <ele>13</ele>
        <time>2023-11-01T15:40:30Z</time>
      </trkpt>
      <trkpt lat="47.21016" lon="-1.72844">
        <ele>12</ele>
        <time>2023-11-01T15:40:56Z</time>
      </trkpt>
      <trkpt lat="47.21028" lon="-1.72866">
        <ele>12</ele>
        <time>2023-11-01T15:41:22Z</time>
      </trkpt>
      <trkpt lat="47.21035" lon="-1.72892">
        <ele>12</ele>
        <time>2023-11-01T15:41:47Z</time>
      </trkpt>
      <trkpt lat="47.21038" lon="-1.7292">
        <ele>11</ele>
        <time>2023-11-01T15:42:13Z</time>
      </trkpt>
      <trkpt lat="47.21043" lon="-1.72947">
        <ele>10</ele>
        <time>2023-11-01T15:42:38Z</time>
      </trkpt>
      <trkpt lat="47.2106" lon="-1.72996">
        <ele>10</ele>
        <time>2023-11-01T15:43:28Z</time>
      </trkpt>
      <trkpt lat="47.21068" lon="-1.73022">
        <ele>9</ele>
        <time>2023-11-01T15:43:54Z</time>
      </trkpt>
      <trkpt lat="47.21074" lon="-1.73047">
        <ele>9</ele>
        <time>2023-11-01T15:44:18Z</time>
      </trkpt>
      <trkpt lat="47.2106" lon="-1.73066">
        <ele>9</ele>
        <time>2023-11-01T15:44:43Z</time>
      </trkpt>
      <trkpt lat="47.21074" lon="-1.73048">
        <ele>9</ele>
        <time>2023-11-01T15:45:08Z</time>
      </trkpt>
      <trkpt lat="47.2109" lon="-1.7303">
        <ele>10</ele>
        <time>2023-11-01T15:45:35Z</time>
      </trkpt>
      <trkpt lat="47.21109" lon="-1.73032">
        <ele>9</ele>
        <time>2023-11-01T15:46:00Z</time>
      </trkpt>
      <trkpt lat="47.21124" lon="-1.73053">
        <ele>9</ele>
        <time>2023-11-01T15:46:28Z</time>
      </trkpt>
      <trkpt lat="47.21135" lon="-1.73076">
        <ele>8</ele>
        <time>2023-11-01T15:46:53Z</time>
      </trkpt>
      <trkpt lat="47.21149" lon="-1.73096">
        <ele>7</ele>
        <time>2023-11-01T15:47:19Z</time>
      </trkpt>
      <trkpt lat="47.21173" lon="-1.73142">
        <ele>8</ele>
        <time>2023-11-01T15:48:12Z</time>
      </trkpt>
      <trkpt lat="47.21187" lon="-1.73161">
        <ele>8</ele>
        <time>2023-11-01T15:48:37Z</time>
      </trkpt>
      <trkpt lat="47.21198" lon="-1.73186">
        <ele>8</ele>
        <time>2023-11-01T15:49:04Z</time>
      </trkpt>
      <trkpt lat="47.21205" lon="-1.73213">
        <ele>8</ele>
        <time>2023-11-01T15:49:31Z</time>
      </trkpt>
      <trkpt lat="47.21211" lon="-1.7324">
        <ele>8</ele>
        <time>2023-11-01T15:49:56Z</time>
      </trkpt>
      <trkpt lat="47.21233" lon="-1.73285">
        <ele>9</ele>
        <time>2023-11-01T15:50:47Z</time>
      </trkpt>
      <trkpt lat="47.21243" lon="-1.7331">
        <ele>10</ele>
        <time>2023-11-01T15:51:13Z</time>
      </trkpt>
      <trkpt lat="47.21252" lon="-1.73336">
        <ele>10</ele>
        <time>2023-11-01T15:51:39Z</time>
      </trkpt>
      <trkpt lat="47.21259" lon="-1.73361">
        <ele>10</ele>
        <time>2023-11-01T15:52:04Z</time>
      </trkpt>
      <trkpt lat="47.21266" lon="-1.73388">
        <ele>10</ele>
        <time>2023-11-01T15:52:30Z</time>
      </trkpt>
      <trkpt lat="47.21274" lon="-1.73414">
        <ele>10</ele>
        <time>2023-11-01T15:52:56Z</time>
      </trkpt>
      <trkpt lat="47.21283" lon="-1.73438">
        <ele>10</ele>
        <time>2023-11-01T15:53:21Z</time>
      </trkpt>
      <trkpt lat="47.21288" lon="-1.73465">
        <ele>9</ele>
        <time>2023-11-01T15:53:46Z</time>
      </trkpt>
      <trkpt lat="47.21298" lon="-1.73491">
        <ele>9</ele>
        <time>2023-11-01T15:54:13Z</time>
      </trkpt>
      <trkpt lat="47.21315" lon="-1.73501">
        <ele>9</ele>
        <time>2023-11-01T15:54:38Z</time>
      </trkpt>
      <trkpt lat="47.21316" lon="-1.7353">
        <ele>8</ele>
        <time>2023-11-01T15:55:04Z</time>
      </trkpt>
      <trkpt lat="47.21327" lon="-1.73552">
        <ele>8</ele>
        <time>2023-11-01T15:55:29Z</time>
      </trkpt>
      <trkpt lat="47.21336" lon="-1.73577">
        <ele>8</ele>
        <time>2023-11-01T15:55:54Z</time>
      </trkpt>
      <trkpt lat="47.21345" lon="-1.73601">
        <ele>8</ele>
        <time>2023-11-01T15:56:19Z</time>
      </trkpt>
      <trkpt lat="47.21352" lon="-1.73625">
        <ele>8</ele>
        <time>2023-11-01T15:56:43Z</time>
      </trkpt>
      <trkpt lat="47.21358" lon="-1.7365">
        <ele>8</ele>
        <time>2023-11-01T15:57:07Z</time>
      </trkpt>
      <trkpt lat="47.21363" lon="-1.73677">
        <ele>8</ele>
        <time>2023-11-01T15:57:32Z</time>
      </trkpt>
      <trkpt lat="47.21368" lon="-1.73704">
        <ele>7</ele>
        <time>2023-11-01T15:57:58Z</time>
      </trkpt>
      <trkpt lat="47.21385" lon="-1.73785">
        <ele>7</ele>
        <time>2023-11-01T15:59:15Z</time>
      </trkpt>
      <trkpt lat="47.2139" lon="-1.73812">
        <ele>7</ele>
        <time>2023-11-01T15:59:40Z</time>
      </trkpt>
      <trkpt lat="47.21397" lon="-1.73895">
        <ele>7</ele>
        <time>2023-11-01T16:00:56Z</time>
      </trkpt>
      <trkpt lat="47.21393" lon="-1.73921">
        <ele>7</ele>
        <time>2023-11-01T16:01:20Z</time>
      </trkpt>
      <trkpt lat="47.21378" lon="-1.73939">
        <ele>7</ele>
        <time>2023-11-01T16:01:46Z</time>
      </trkpt>
      <trkpt lat="47.21368" lon="-1.73961">
        <ele>7</ele>
        <time>2023-11-01T16:02:10Z</time>
      </trkpt>
      <trkpt lat="47.21361" lon="-1.73988">
        <ele>7</ele>
        <time>2023-11-01T16:02:36Z</time>
      </trkpt>
      <trkpt lat="47.21352" lon="-1.74014">
        <ele>7</ele>
        <time>2023-11-01T16:03:02Z</time>
      </trkpt>
      <trkpt lat="47.21333" lon="-1.74021">
        <ele>8</ele>
        <time>2023-11-01T16:03:28Z</time>
      </trkpt>
      <trkpt lat="47.21313" lon="-1.74015">
        <ele>7</ele>
        <time>2023-11-01T16:03:56Z</time>
      </trkpt>
      <trkpt lat="47.21294" lon="-1.74017">
        <ele>6</ele>
        <time>2023-11-01T16:04:21Z</time>
      </trkpt>
      <trkpt lat="47.21278" lon="-1.74031">
        <ele>6</ele>
        <time>2023-11-01T16:04:46Z</time>
      </trkpt>
      <trkpt lat="47.21261" lon="-1.74046">
        <ele>6</ele>
        <time>2023-11-01T16:05:12Z</time>
      </trkpt>
      <trkpt lat="47.2125" lon="-1.74066">
        <ele>6</ele>
        <time>2023-11-01T16:05:36Z</time>
      </trkpt>
      <trkpt lat="47.21245" lon="-1.74094">
        <ele>6</ele>
        <time>2023-11-01T16:06:02Z</time>
      </trkpt>
      <trkpt lat="47.21243" lon="-1.74122">
        <ele>7</ele>
        <time>2023-11-01T16:06:28Z</time>
      </trkpt>
      <trkpt lat="47.21229" lon="-1.74143">
        <ele>7</ele>
        <time>2023-11-01T16:06:54Z</time>
      </trkpt>
      <trkpt lat="47.21215" lon="-1.74163">
        <ele>6</ele>
        <time>2023-11-01T16:07:20Z</time>
      </trkpt>
      <trkpt lat="47.21212" lon="-1.7419">
        <ele>6</ele>
        <time>2023-11-01T16:07:45Z</time>
      </trkpt>
      <trkpt lat="47.21214" lon="-1.74219">
        <ele>7</ele>
        <time>2023-11-01T16:08:11Z</time>
      </trkpt>
      <trkpt lat="47.21215" lon="-1.74247">
        <ele>7</ele>
        <time>2023-11-01T16:08:37Z</time>
      </trkpt>
      <trkpt lat="47.21213" lon="-1.74273">
        <ele>7</ele>
        <time>2023-11-01T16:09:01Z</time>
      </trkpt>
      <trkpt lat="47.21212" lon="-1.74301">
        <ele>7</ele>
        <time>2023-11-01T16:09:26Z</time>
      </trkpt>
      <trkpt lat="47.21214" lon="-1.74329">
        <ele>7</ele>
        <time>2023-11-01T16:09:52Z</time>
      </trkpt>
      <trkpt lat="47.21214" lon="-1.74358">
        <ele>8</ele>
        <time>2023-11-01T16:10:18Z</time>
      </trkpt>
      <trkpt lat="47.21215" lon="-1.74387">
        <ele>9</ele>
        <time>2023-11-01T16:10:44Z</time>
      </trkpt>
      <trkpt lat="47.21218" lon="-1.74415">
        <ele>10</ele>
        <time>2023-11-01T16:11:10Z</time>
      </trkpt>
      <trkpt lat="47.21222" lon="-1.74441">
        <ele>10</ele>
        <time>2023-11-01T16:11:34Z</time>
      </trkpt>
      <trkpt lat="47.21223" lon="-1.74471">
        <ele>10</ele>
        <time>2023-11-01T16:12:01Z</time>
      </trkpt>
      <trkpt lat="47.2124" lon="-1.74487">
        <ele>11</ele>
        <time>2023-11-01T16:12:28Z</time>
      </trkpt>
      <trkpt lat="47.2124" lon="-1.74517">
        <ele>11</ele>
        <time>2023-11-01T16:12:55Z</time>
      </trkpt>
      <trkpt lat="47.21234" lon="-1.74545">
        <ele>11</ele>
        <time>2023-11-01T16:13:22Z</time>
      </trkpt>
      <trkpt lat="47.21219" lon="-1.74562">
        <ele>12</ele>
        <time>2023-11-01T16:13:47Z</time>
      </trkpt>
      <trkpt lat="47.21208" lon="-1.74586">
        <ele>13</ele>
        <time>2023-11-01T16:14:13Z</time>
      </trkpt>
      <trkpt lat="47.21198" lon="-1.74611">
        <ele>14</ele>
        <time>2023-11-01T16:14:40Z</time>
      </trkpt>
      <trkpt lat="47.21192" lon="-1.74636">
        <ele>14</ele>
        <time>2023-11-01T16:15:04Z</time>
      </trkpt>
      <trkpt lat="47.21183" lon="-1.74661">
        <ele>15</ele>
        <time>2023-11-01T16:15:29Z</time>
      </trkpt>
      <trkpt lat="47.21174" lon="-1.74686">
        <ele>15</ele>
        <time>2023-11-01T16:15:55Z</time>
      </trkpt>
      <trkpt lat="47.21165" lon="-1.74713">
        <ele>15</ele>
        <time>2023-11-01T16:16:22Z</time>
      </trkpt>
      <trkpt lat="47.21159" lon="-1.74738">
        <ele>14</ele>
        <time>2023-11-01T16:16:46Z</time>
      </trkpt>
      <trkpt lat="47.21154" lon="-1.74767">
        <ele>15</ele>
        <time>2023-11-01T16:17:14Z</time>
      </trkpt>
      <trkpt lat="47.21158" lon="-1.74798">
        <ele>15</ele>
        <time>2023-11-01T16:17:42Z</time>
      </trkpt>
      <trkpt lat="47.21163" lon="-1.74827">
        <ele>16</ele>
        <time>2023-11-01T16:18:09Z</time>
      </trkpt>
      <trkpt lat="47.21165" lon="-1.74853">
        <ele>17</ele>
        <time>2023-11-01T16:18:33Z</time>
      </trkpt>
      <trkpt lat="47.21164" lon="-1.7488">
        <ele>18</ele>
        <time>2023-11-01T16:18:57Z</time>
      </trkpt>
      <trkpt lat="47.21158" lon="-1.74906">
        <ele>19</ele>
        <time>2023-11-01T16:19:22Z</time>
      </trkpt>
      <trkpt lat="47.21164" lon="-1.74931">
        <ele>19</ele>
        <time>2023-11-01T16:19:46Z</time>
      </trkpt>
      <trkpt lat="47.21154" lon="-1.74906">
        <ele>19</ele>
        <time>2023-11-01T16:20:13Z</time>
      </trkpt>
      <trkpt lat="47.21136" lon="-1.74913">
        <ele>20</ele>
        <time>2023-11-01T16:20:38Z</time>
      </trkpt>
      <trkpt lat="47.211" lon="-1.74931">
        <ele>21</ele>
        <time>2023-11-01T16:21:28Z</time>
      </trkpt>
      <trkpt lat="47.21083" lon="-1.74941">
        <ele>22</ele>
        <time>2023-11-01T16:21:53Z</time>
      </trkpt>
      <trkpt lat="47.21065" lon="-1.74946">
        <ele>20</ele>
        <time>2023-11-01T16:22:17Z</time>
      </trkpt>
      <trkpt lat="47.21047" lon="-1.74954">
        <ele>19</ele>
        <time>2023-11-01T16:22:42Z</time>
      </trkpt>
      <trkpt lat="47.21036" lon="-1.7493">
        <ele>19</ele>
        <time>2023-11-01T16:23:08Z</time>
      </trkpt>
      <trkpt lat="47.21029" lon="-1.74903">
        <ele>18</ele>
        <time>2023-11-01T16:23:35Z</time>
      </trkpt>
      <trkpt lat="47.21022" lon="-1.74878">
        <ele>17</ele>
        <time>2023-11-01T16:23:59Z</time>
      </trkpt>
      <trkpt lat="47.21009" lon="-1.74859">
        <ele>16</ele>
        <time>2023-11-01T16:24:24Z</time>
      </trkpt>
      <trkpt lat="47.20998" lon="-1.74837">
        <ele>16</ele>
        <time>2023-11-01T16:24:48Z</time>
      </trkpt>
      <trkpt lat="47.20979" lon="-1.7484">
        <ele>13</ele>
        <time>2023-11-01T16:25:14Z</time>
      </trkpt>
      <trkpt lat="47.20961" lon="-1.74836">
        <ele>10</ele>
        <time>2023-11-01T16:25:38Z</time>
      </trkpt>
      <trkpt lat="47.2095" lon="-1.74857">
        <ele>9</ele>
        <time>2023-11-01T16:26:02Z</time>
      </trkpt>
      <trkpt lat="47.20936" lon="-1.74876">
        <ele>7</ele>
        <time>2023-11-01T16:26:28Z</time>
      </trkpt>
      <trkpt lat="47.20918" lon="-1.74888">
        <ele>5</ele>
        <time>2023-11-01T16:26:54Z</time>
      </trkpt>
      <trkpt lat="47.20898" lon="-1.74893">
        <ele>4</ele>
        <time>2023-11-01T16:27:21Z</time>
      </trkpt>
      <trkpt lat="47.2088" lon="-1.749">
        <ele>4</ele>
        <time>2023-11-01T16:27:46Z</time>
      </trkpt>
      <trkpt lat="47.20804" lon="-1.7493">
        <ele>3</ele>
        <time>2023-11-01T16:29:31Z</time>
      </trkpt>
      <trkpt lat="47.20786" lon="-1.74934">
        <ele>3</ele>
        <time>2023-11-01T16:29:55Z</time>
      </trkpt>
      <trkpt lat="47.20766" lon="-1.74942">
        <ele>2</ele>
        <time>2023-11-01T16:30:23Z</time>
      </trkpt>
      <trkpt lat="47.20747" lon="-1.7495">
        <ele>2</ele>
        <time>2023-11-01T16:30:49Z</time>
      </trkpt>
      <trkpt lat="47.20728" lon="-1.74958">
        <ele>3</ele>
        <time>2023-11-01T16:31:16Z</time>
      </trkpt>
      <trkpt lat="47.2071" lon="-1.74965">
        <ele>3</ele>
        <time>2023-11-01T16:31:40Z</time>
      </trkpt>
      <trkpt lat="47.20692" lon="-1.74978">
        <ele>3</ele>
        <time>2023-11-01T16:32:07Z</time>
      </trkpt>
      <trkpt lat="47.20677" lon="-1.74996">
        <ele>4</ele>
        <time>2023-11-01T16:32:33Z</time>
      </trkpt>
      <trkpt lat="47.20664" lon="-1.75017">
        <ele>4</ele>
        <time>2023-11-01T16:32:59Z</time>
      </trkpt>
      <trkpt lat="47.20624" lon="-1.75144">
        <ele>2</ele>
        <time>2023-11-01T16:35:06Z</time>
      </trkpt>
      <trkpt lat="47.20613" lon="-1.75167">
        <ele>2</ele>
        <time>2023-11-01T16:35:31Z</time>
      </trkpt>
      <trkpt lat="47.20595" lon="-1.75167">
        <ele>3</ele>
        <time>2023-11-01T16:35:55Z</time>
      </trkpt>
      <trkpt lat="47.20577" lon="-1.75175">
        <ele>3</ele>
        <time>2023-11-01T16:36:20Z</time>
      </trkpt>
      <trkpt lat="47.20571" lon="-1.75202">
        <ele>3</ele>
        <time>2023-11-01T16:36:46Z</time>
      </trkpt>
      <trkpt lat="47.20572" lon="-1.75174">
        <ele>3</ele>
        <time>2023-11-01T16:37:12Z</time>
      </trkpt>
      <trkpt lat="47.2059" lon="-1.75166">
        <ele>3</ele>
        <time>2023-11-01T16:37:37Z</time>
      </trkpt>
      <trkpt lat="47.20604" lon="-1.75148">
        <ele>2</ele>
        <time>2023-11-01T16:38:01Z</time>
      </trkpt>
      <trkpt lat="47.20616" lon="-1.75127">
        <ele>2</ele>
        <time>2023-11-01T16:38:26Z</time>
      </trkpt>
      <trkpt lat="47.20633" lon="-1.75076">
        <ele>2</ele>
        <time>2023-11-01T16:39:18Z</time>
      </trkpt>
      <trkpt lat="47.20639" lon="-1.75051">
        <ele>3</ele>
        <time>2023-11-01T16:39:42Z</time>
      </trkpt>
      <trkpt lat="47.20656" lon="-1.75002">
        <ele>4</ele>
        <time>2023-11-01T16:40:32Z</time>
      </trkpt>
      <trkpt lat="47.20667" lon="-1.74978">
        <ele>4</ele>
        <time>2023-11-01T16:40:58Z</time>
      </trkpt>
      <trkpt lat="47.20685" lon="-1.74968">
        <ele>4</ele>
        <time>2023-11-01T16:41:24Z</time>
      </trkpt>
      <trkpt lat="47.20702" lon="-1.74961">
        <ele>3</ele>
        <time>2023-11-01T16:41:47Z</time>
      </trkpt>
      <trkpt lat="47.20721" lon="-1.74951">
        <ele>3</ele>
        <time>2023-11-01T16:42:14Z</time>
      </trkpt>
      <trkpt lat="47.20741" lon="-1.74945">
        <ele>3</ele>
        <time>2023-11-01T16:42:41Z</time>
      </trkpt>
      <trkpt lat="47.2076" lon="-1.74939">
        <ele>2</ele>
        <time>2023-11-01T16:43:07Z</time>
      </trkpt>
      <trkpt lat="47.20797" lon="-1.74924">
        <ele>3</ele>
        <time>2023-11-01T16:43:58Z</time>
      </trkpt>
      <trkpt lat="47.20815" lon="-1.74916">
        <ele>3</ele>
        <time>2023-11-01T16:44:24Z</time>
      </trkpt>
      <trkpt lat="47.20833" lon="-1.7491">
        <ele>3</ele>
        <time>2023-11-01T16:44:48Z</time>
      </trkpt>
      <trkpt lat="47.20853" lon="-1.74904">
        <ele>3</ele>
        <time>2023-11-01T16:45:15Z</time>
      </trkpt>
      <trkpt lat="47.20871" lon="-1.74896">
        <ele>4</ele>
        <time>2023-11-01T16:45:41Z</time>
      </trkpt>
      <trkpt lat="47.20889" lon="-1.74889">
        <ele>4</ele>
        <time>2023-11-01T16:46:05Z</time>
      </trkpt>
      <trkpt lat="47.20908" lon="-1.74883">
        <ele>4</ele>
        <time>2023-11-01T16:46:31Z</time>
      </trkpt>
      <trkpt lat="47.20926" lon="-1.74886">
        <ele>6</ele>
        <time>2023-11-01T16:46:55Z</time>
      </trkpt>
      <trkpt lat="47.20942" lon="-1.74871">
        <ele>8</ele>
        <time>2023-11-01T16:47:21Z</time>
      </trkpt>
      <trkpt lat="47.2095" lon="-1.74845">
        <ele>9</ele>
        <time>2023-11-01T16:47:47Z</time>
      </trkpt>
      <trkpt lat="47.20954" lon="-1.74817">
        <ele>9</ele>
        <time>2023-11-01T16:48:13Z</time>
      </trkpt>
      <trkpt lat="47.20955" lon="-1.7479">
        <ele>9</ele>
        <time>2023-11-01T16:48:37Z</time>
      </trkpt>
      <trkpt lat="47.20956" lon="-1.74763">
        <ele>9</ele>
        <time>2023-11-01T16:49:02Z</time>
      </trkpt>
      <trkpt lat="47.20962" lon="-1.74735">
        <ele>10</ele>
        <time>2023-11-01T16:49:28Z</time>
      </trkpt>
      <trkpt lat="47.20965" lon="-1.74707">
        <ele>9</ele>
        <time>2023-11-01T16:49:54Z</time>
      </trkpt>
      <trkpt lat="47.20966" lon="-1.7468">
        <ele>8</ele>
        <time>2023-11-01T16:50:18Z</time>
      </trkpt>
      <trkpt lat="47.20968" lon="-1.74654">
        <ele>8</ele>
        <time>2023-11-01T16:50:42Z</time>
      </trkpt>
      <trkpt lat="47.20974" lon="-1.74627">
        <ele>8</ele>
        <time>2023-11-01T16:51:08Z</time>
      </trkpt>
      <trkpt lat="47.2098" lon="-1.746">
        <ele>8</ele>
        <time>2023-11-01T16:51:34Z</time>
      </trkpt>
      <trkpt lat="47.20984" lon="-1.74572">
        <ele>8</ele>
        <time>2023-11-01T16:52:00Z</time>
      </trkpt>
      <trkpt lat="47.20985" lon="-1.74544">
        <ele>7</ele>
        <time>2023-11-01T16:52:25Z</time>
      </trkpt>
      <trkpt lat="47.2099" lon="-1.74517">
        <ele>8</ele>
        <time>2023-11-01T16:52:50Z</time>
      </trkpt>
      <trkpt lat="47.20992" lon="-1.74488">
        <ele>7</ele>
        <time>2023-11-01T16:53:17Z</time>
      </trkpt>
      <trkpt lat="47.20993" lon="-1.74461">
        <ele>6</ele>
        <time>2023-11-01T16:53:41Z</time>
      </trkpt>
      <trkpt lat="47.20997" lon="-1.74432">
        <ele>5</ele>
        <time>2023-11-01T16:54:08Z</time>
      </trkpt>
      <trkpt lat="47.20999" lon="-1.74405">
        <ele>4</ele>
        <time>2023-11-01T16:54:33Z</time>
      </trkpt>
      <trkpt lat="47.21003" lon="-1.74376">
        <ele>3</ele>
        <time>2023-11-01T16:55:00Z</time>
      </trkpt>
      <trkpt lat="47.21009" lon="-1.74349">
        <ele>3</ele>
        <time>2023-11-01T16:55:25Z</time>
      </trkpt>
      <trkpt lat="47.21018" lon="-1.74325">
        <ele>3</ele>
        <time>2023-11-01T16:55:50Z</time>
      </trkpt>
      <trkpt lat="47.21029" lon="-1.74303">
        <ele>3</ele>
        <time>2023-11-01T16:56:15Z</time>
      </trkpt>
      <trkpt lat="47.21048" lon="-1.74253">
        <ele>4</ele>
        <time>2023-11-01T16:57:07Z</time>
      </trkpt>
      <trkpt lat="47.21059" lon="-1.7423">
        <ele>3</ele>
        <time>2023-11-01T16:57:32Z</time>
      </trkpt>
      <trkpt lat="47.21072" lon="-1.7421">
        <ele>3</ele>
        <time>2023-11-01T16:57:58Z</time>
      </trkpt>
      <trkpt lat="47.21086" lon="-1.74193">
        <ele>3</ele>
        <time>2023-11-01T16:58:22Z</time>
      </trkpt>
      <trkpt lat="47.211" lon="-1.74173">
        <ele>3</ele>
        <time>2023-11-01T16:58:48Z</time>
      </trkpt>
      <trkpt lat="47.21115" lon="-1.74153">
        <ele>3</ele>
        <time>2023-11-01T16:59:15Z</time>
      </trkpt>
      <trkpt lat="47.21158" lon="-1.7409">
        <ele>5</ele>
        <time>2023-11-01T17:00:36Z</time>
      </trkpt>
      <trkpt lat="47.21172" lon="-1.7407">
        <ele>5</ele>
        <time>2023-11-01T17:01:02Z</time>
      </trkpt>
      <trkpt lat="47.21167" lon="-1.74043">
        <ele>5</ele>
        <time>2023-11-01T17:01:27Z</time>
      </trkpt>
      <trkpt lat="47.21165" lon="-1.74016">
        <ele>4</ele>
        <time>2023-11-01T17:01:52Z</time>
      </trkpt>
      <trkpt lat="47.21157" lon="-1.73958">
        <ele>4</ele>
        <time>2023-11-01T17:02:45Z</time>
      </trkpt>
      <trkpt lat="47.21153" lon="-1.7393">
        <ele>4</ele>
        <time>2023-11-01T17:03:11Z</time>
      </trkpt>
      <trkpt lat="47.21146" lon="-1.73904">
        <ele>4</ele>
        <time>2023-11-01T17:03:37Z</time>
      </trkpt>
      <trkpt lat="47.21139" lon="-1.73876">
        <ele>4</ele>
        <time>2023-11-01T17:04:04Z</time>
      </trkpt>
      <trkpt lat="47.21138" lon="-1.73846">
        <ele>4</ele>
        <time>2023-11-01T17:04:31Z</time>
      </trkpt>
      <trkpt lat="47.21133" lon="-1.73819">
        <ele>4</ele>
        <time>2023-11-01T17:04:56Z</time>
      </trkpt>
      <trkpt lat="47.21125" lon="-1.73794">
        <ele>4</ele>
        <time>2023-11-01T17:05:21Z</time>
      </trkpt>
      <trkpt lat="47.21117" lon="-1.73767">
        <ele>4</ele>
        <time>2023-11-01T17:05:48Z</time>
      </trkpt>
      <trkpt lat="47.21112" lon="-1.73709">
        <ele>4</ele>
        <time>2023-11-01T17:06:41Z</time>
      </trkpt>
      <trkpt lat="47.21107" lon="-1.73681">
        <ele>4</ele>
        <time>2023-11-01T17:07:07Z</time>
      </trkpt>
      <trkpt lat="47.21106" lon="-1.73653">
        <ele>3</ele>
        <time>2023-11-01T17:07:33Z</time>
      </trkpt>
      <trkpt lat="47.2111" lon="-1.73626">
        <ele>3</ele>
        <time>2023-11-01T17:07:58Z</time>
      </trkpt>
      <trkpt lat="47.2111" lon="-1.736">
        <ele>3</ele>
        <time>2023-11-01T17:08:21Z</time>
      </trkpt>
      <trkpt lat="47.21109" lon="-1.73569">
        <ele>4</ele>
        <time>2023-11-01T17:08:50Z</time>
      </trkpt>
      <trkpt lat="47.2111" lon="-1.73542">
        <ele>4</ele>
        <time>2023-11-01T17:09:14Z</time>
      </trkpt>
      <trkpt lat="47.21113" lon="-1.73514">
        <ele>5</ele>
        <time>2023-11-01T17:09:40Z</time>
      </trkpt>
      <trkpt lat="47.21115" lon="-1.73488">
        <ele>5</ele>
        <time>2023-11-01T17:10:03Z</time>
      </trkpt>
      <trkpt lat="47.21114" lon="-1.73461">
        <ele>5</ele>
        <time>2023-11-01T17:10:28Z</time>
      </trkpt>
      <trkpt lat="47.21113" lon="-1.73432">
        <ele>6</ele>
        <time>2023-11-01T17:10:54Z</time>
      </trkpt>
      <trkpt lat="47.21116" lon="-1.73403">
        <ele>6</ele>
        <time>2023-11-01T17:11:21Z</time>
      </trkpt>
      <trkpt lat="47.21117" lon="-1.73373">
        <ele>6</ele>
        <time>2023-11-01T17:11:48Z</time>
      </trkpt>
      <trkpt lat="47.21119" lon="-1.73344">
        <ele>5</ele>
        <time>2023-11-01T17:12:15Z</time>
      </trkpt>
      <trkpt lat="47.21124" lon="-1.73315">
        <ele>5</ele>
        <time>2023-11-01T17:12:42Z</time>
      </trkpt>
      <trkpt lat="47.21131" lon="-1.7326">
        <ele>6</ele>
        <time>2023-11-01T17:13:32Z</time>
      </trkpt>
      <trkpt lat="47.21135" lon="-1.73232">
        <ele>6</ele>
        <time>2023-11-01T17:13:58Z</time>
      </trkpt>
      <trkpt lat="47.21128" lon="-1.73206">
        <ele>6</ele>
        <time>2023-11-01T17:14:24Z</time>
      </trkpt>
      <trkpt lat="47.21109" lon="-1.73215">
        <ele>6</ele>
        <time>2023-11-01T17:14:50Z</time>
      </trkpt>
      <trkpt lat="47.21112" lon="-1.73243">
        <ele>5</ele>
        <time>2023-11-01T17:15:16Z</time>
      </trkpt>
      <trkpt lat="47.21095" lon="-1.73228">
        <ele>5</ele>
        <time>2023-11-01T17:15:42Z</time>
      </trkpt>
      <trkpt lat="47.21078" lon="-1.73237">
        <ele>5</ele>
        <time>2023-11-01T17:16:07Z</time>
      </trkpt>
      <trkpt lat="47.2106" lon="-1.73242">
        <ele>5</ele>
        <time>2023-11-01T17:16:31Z</time>
      </trkpt>
      <trkpt lat="47.21047" lon="-1.73221">
        <ele>5</ele>
        <time>2023-11-01T17:16:57Z</time>
      </trkpt>
      <trkpt lat="47.2104" lon="-1.73195">
        <ele>5</ele>
        <time>2023-11-01T17:17:22Z</time>
      </trkpt>
      <trkpt lat="47.21041" lon="-1.73167">
        <ele>5</ele>
        <time>2023-11-01T17:17:48Z</time>
      </trkpt>
      <trkpt lat="47.21033" lon="-1.73142">
        <ele>6</ele>
        <time>2023-11-01T17:18:13Z</time>
      </trkpt>
      <trkpt lat="47.21016" lon="-1.73129">
        <ele>7</ele>
        <time>2023-11-01T17:18:38Z</time>
      </trkpt>
      <trkpt lat="47.20998" lon="-1.73133">
        <ele>6</ele>
        <time>2023-11-01T17:19:02Z</time>
      </trkpt>
      <trkpt lat="47.2098" lon="-1.73138">
        <ele>5</ele>
        <time>2023-11-01T17:19:27Z</time>
      </trkpt>
      <trkpt lat="47.20961" lon="-1.73131">
        <ele>4</ele>
        <time>2023-11-01T17:19:53Z</time>
      </trkpt>
      <trkpt lat="47.2095" lon="-1.73106">
        <ele>4</ele>
        <time>2023-11-01T17:20:20Z</time>
      </trkpt>
      <trkpt lat="47.20942" lon="-1.7308">
        <ele>4</ele>
        <time>2023-11-01T17:20:46Z</time>
      </trkpt>
      <trkpt lat="47.20936" lon="-1.73054">
        <ele>4</ele>
        <time>2023-11-01T17:21:11Z</time>
      </trkpt>
      <trkpt lat="47.2093" lon="-1.73027">
        <ele>4</ele>
        <time>2023-11-01T17:21:37Z</time>
      </trkpt>
      <trkpt lat="47.20927" lon="-1.72999">
        <ele>4</ele>
        <time>2023-11-01T17:22:02Z</time>
      </trkpt>
      <trkpt lat="47.20924" lon="-1.7297">
        <ele>4</ele>
        <time>2023-11-01T17:22:29Z</time>
      </trkpt>
      <trkpt lat="47.20917" lon="-1.72945">
        <ele>4</ele>
        <time>2023-11-01T17:22:53Z</time>
      </trkpt>
      <trkpt lat="47.20909" lon="-1.7292">
        <ele>4</ele>
        <time>2023-11-01T17:23:18Z</time>
      </trkpt>
      <trkpt lat="47.2089" lon="-1.72923">
        <ele>3</ele>
        <time>2023-11-01T17:23:44Z</time>
      </trkpt>
      <trkpt lat="47.20871" lon="-1.72923">
        <ele>2</ele>
        <time>2023-11-01T17:24:09Z</time>
      </trkpt>
      <trkpt lat="47.20862" lon="-1.729">
        <ele>2</ele>
        <time>2023-11-01T17:24:33Z</time>
      </trkpt>
      <trkpt lat="47.20859" lon="-1.72872">
        <ele>3</ele>
        <time>2023-11-01T17:24:59Z</time>
      </trkpt>
      <trkpt lat="47.2087" lon="-1.7285">
        <ele>3</ele>
        <time>2023-11-01T17:25:24Z</time>
      </trkpt>
      <trkpt lat="47.20873" lon="-1.72821">
        <ele>4</ele>
        <time>2023-11-01T17:25:50Z</time>
      </trkpt>
      <trkpt lat="47.20881" lon="-1.72796">
        <ele>5</ele>
        <time>2023-11-01T17:26:15Z</time>
      </trkpt>
      <trkpt lat="47.20892" lon="-1.72773">
        <ele>6</ele>
        <time>2023-11-01T17:26:41Z</time>
      </trkpt>
      <trkpt lat="47.2088" lon="-1.72718">
        <ele>5</ele>
        <time>2023-11-01T17:27:33Z</time>
      </trkpt>
      <trkpt lat="47.20879" lon="-1.72689">
        <ele>4</ele>
        <time>2023-11-01T17:28:00Z</time>
      </trkpt>
      <trkpt lat="47.20879" lon="-1.7266">
        <ele>4</ele>
        <time>2023-11-01T17:28:26Z</time>
      </trkpt>
      <trkpt lat="47.20883" lon="-1.72634">
        <ele>5</ele>
        <time>2023-11-01T17:28:50Z</time>
      </trkpt>
      <trkpt lat="47.20888" lon="-1.72608">
        <ele>5</ele>
        <time>2023-11-01T17:29:15Z</time>
      </trkpt>
      <trkpt lat="47.2089" lon="-1.7258">
        <ele>6</ele>
        <time>2023-11-01T17:29:40Z</time>
      </trkpt>
      <trkpt lat="47.20888" lon="-1.72498">
        <ele>7</ele>
        <time>2023-11-01T17:30:54Z</time>
      </trkpt>
      <trkpt lat="47.20888" lon="-1.7247">
        <ele>7</ele>
        <time>2023-11-01T17:31:20Z</time>
      </trkpt>
      <trkpt lat="47.20884" lon="-1.72443">
        <ele>7</ele>
        <time>2023-11-01T17:31:45Z</time>
      </trkpt>
      <trkpt lat="47.20882" lon="-1.72413">
        <ele>7</ele>
        <time>2023-11-01T17:32:12Z</time>
      </trkpt>
      <trkpt lat="47.20879" lon="-1.72384">
        <ele>7</ele>
        <time>2023-11-01T17:32:39Z</time>
      </trkpt>
      <trkpt lat="47.20876" lon="-1.72356">
        <ele>6</ele>
        <time>2023-11-01T17:33:05Z</time>
      </trkpt>
      <trkpt lat="47.20874" lon="-1.72328">
        <ele>6</ele>
        <time>2023-11-01T17:33:30Z</time>
      </trkpt>
      <trkpt lat="47.2087" lon="-1.72301">
        <ele>6</ele>
        <time>2023-11-01T17:33:55Z</time>
      </trkpt>
      <trkpt lat="47.20869" lon="-1.72274">
        <ele>6</ele>
        <time>2023-11-01T17:34:20Z</time>
      </trkpt>
      <trkpt lat="47.20866" lon="-1.72219">
        <ele>6</ele>
        <time>2023-11-01T17:35:10Z</time>
      </trkpt>
      <trkpt lat="47.20863" lon="-1.72192">
        <ele>5</ele>
        <time>2023-11-01T17:35:34Z</time>
      </trkpt>
      <trkpt lat="47.20863" lon="-1.72164">
        <ele>5</ele>
        <time>2023-11-01T17:36:00Z</time>
      </trkpt>
      <trkpt lat="47.20859" lon="-1.72135">
        <ele>6</ele>
        <time>2023-11-01T17:36:27Z</time>
      </trkpt>
      <trkpt lat="47.2086" lon="-1.72106">
        <ele>6</ele>
        <time>2023-11-01T17:36:53Z</time>
      </trkpt>
      <trkpt lat="47.20857" lon="-1.72079">
        <ele>6</ele>
        <time>2023-11-01T17:37:18Z</time>
      </trkpt>
      <trkpt lat="47.20856" lon="-1.72046">
        <ele>7</ele>
        <time>2023-11-01T17:37:48Z</time>
      </trkpt>
      <trkpt lat="47.20855" lon="-1.72019">
        <ele>7</ele>
        <time>2023-11-01T17:38:12Z</time>
      </trkpt>
      <trkpt lat="47.20874" lon="-1.72023">
        <ele>8</ele>
        <time>2023-11-01T17:38:38Z</time>
      </trkpt>
      <trkpt lat="47.20883" lon="-1.72048">
        <ele>8</ele>
        <time>2023-11-01T17:39:03Z</time>
      </trkpt>
      <trkpt lat="47.20883" lon="-1.72075">
        <ele>8</ele>
        <time>2023-11-01T17:39:28Z</time>
      </trkpt>
      <trkpt lat="47.20881" lon="-1.72047">
        <ele>8</ele>
        <time>2023-11-01T17:39:53Z</time>
      </trkpt>
      <trkpt lat="47.20873" lon="-1.72023">
        <ele>8</ele>
        <time>2023-11-01T17:40:18Z</time>
      </trkpt>
    </trkseg>
  </trk>
  <trk>
    <name><![CDATA[Coueron_MemoireOuvriere_7.3km-9677901]]></name>
    <extensions>
      <line xmlns="http://www.topografix.com/GPX/gpx_style/0/2">
        <color>00FF00</color>
        <width>4</width>
      </line>
    </extensions>
    <trkseg>
      <trkpt lat="47.20889" lon="-1.71967">
        <ele>9</ele>
        <time>2023-11-01T14:54:13Z</time>
      </trkpt>
      <trkpt lat="47.2089" lon="-1.72005">
        <ele>9</ele>
        <time>2023-11-01T14:54:47Z</time>
      </trkpt>
      <trkpt lat="47.20888" lon="-1.72007">
        <ele>9</ele>
        <time>2023-11-01T14:54:51Z</time>
      </trkpt>
      <trkpt lat="47.20873" lon="-1.72007">
        <ele>8</ele>
        <time>2023-11-01T14:55:11Z</time>
      </trkpt>
      <trkpt lat="47.20872" lon="-1.72024">
        <ele>8</ele>
        <time>2023-11-01T14:55:26Z</time>
      </trkpt>
      <trkpt lat="47.20878" lon="-1.72037">
        <ele>8</ele>
        <time>2023-11-01T14:55:40Z</time>
      </trkpt>
      <trkpt lat="47.20884" lon="-1.72062">
        <ele>8</ele>
        <time>2023-11-01T14:56:04Z</time>
      </trkpt>
      <trkpt lat="47.20874" lon="-1.72027">
        <ele>8</ele>
        <time>2023-11-01T14:56:39Z</time>
      </trkpt>
      <trkpt lat="47.20854" lon="-1.72021">
        <ele>7</ele>
        <time>2023-11-01T14:57:06Z</time>
      </trkpt>
      <trkpt lat="47.20859" lon="-1.72095">
        <ele>6</ele>
        <time>2023-11-01T14:58:14Z</time>
      </trkpt>
      <trkpt lat="47.20862" lon="-1.72191">
        <ele>5</ele>
        <time>2023-11-01T14:59:41Z</time>
      </trkpt>
      <trkpt lat="47.20873" lon="-1.7235">
        <ele>6</ele>
        <time>2023-11-01T15:02:06Z</time>
      </trkpt>
      <trkpt lat="47.20875" lon="-1.72383">
        <ele>7</ele>
        <time>2023-11-01T15:02:36Z</time>
      </trkpt>
      <trkpt lat="47.20875" lon="-1.72416">
        <ele>7</ele>
        <time>2023-11-01T15:03:06Z</time>
      </trkpt>
      <trkpt lat="47.20881" lon="-1.72484">
        <ele>7</ele>
        <time>2023-11-01T15:04:08Z</time>
      </trkpt>
      <trkpt lat="47.20884" lon="-1.72499">
        <ele>7</ele>
        <time>2023-11-01T15:04:22Z</time>
      </trkpt>
      <trkpt lat="47.20888" lon="-1.72553">
        <ele>6</ele>
        <time>2023-11-01T15:05:11Z</time>
      </trkpt>
      <trkpt lat="47.20886" lon="-1.72613">
        <ele>5</ele>
        <time>2023-11-01T15:06:06Z</time>
      </trkpt>
      <trkpt lat="47.20879" lon="-1.72641">
        <ele>4</ele>
        <time>2023-11-01T15:06:33Z</time>
      </trkpt>
      <trkpt lat="47.20878" lon="-1.72687">
        <ele>4</ele>
        <time>2023-11-01T15:07:14Z</time>
      </trkpt>
      <trkpt lat="47.20883" lon="-1.72799">
        <ele>5</ele>
        <time>2023-11-01T15:08:56Z</time>
      </trkpt>
      <trkpt lat="47.20872" lon="-1.72831">
        <ele>4</ele>
        <time>2023-11-01T15:09:29Z</time>
      </trkpt>
      <trkpt lat="47.20859" lon="-1.72867">
        <ele>3</ele>
        <time>2023-11-01T15:10:06Z</time>
      </trkpt>
      <trkpt lat="47.20857" lon="-1.72898">
        <ele>2</ele>
        <time>2023-11-01T15:10:34Z</time>
      </trkpt>
      <trkpt lat="47.20873" lon="-1.7292">
        <ele>2</ele>
        <time>2023-11-01T15:11:03Z</time>
      </trkpt>
      <trkpt lat="47.20904" lon="-1.72913">
        <ele>4</ele>
        <time>2023-11-01T15:11:45Z</time>
      </trkpt>
      <trkpt lat="47.20925" lon="-1.72984">
        <ele>4</ele>
        <time>2023-11-01T15:12:55Z</time>
      </trkpt>
      <trkpt lat="47.20915" lon="-1.72992">
        <ele>3</ele>
        <time>2023-11-01T15:13:10Z</time>
      </trkpt>
      <trkpt lat="47.20951" lon="-1.73094">
        <ele>4</ele>
        <time>2023-11-01T15:14:54Z</time>
      </trkpt>
      <trkpt lat="47.20964" lon="-1.73147">
        <ele>4</ele>
        <time>2023-11-01T15:15:46Z</time>
      </trkpt>
      <trkpt lat="47.21021" lon="-1.73119">
        <ele>7</ele>
        <time>2023-11-01T15:17:06Z</time>
      </trkpt>
      <trkpt lat="47.21031" lon="-1.7313">
        <ele>7</ele>
        <time>2023-11-01T15:17:22Z</time>
      </trkpt>
      <trkpt lat="47.2104" lon="-1.73171">
        <ele>5</ele>
        <time>2023-11-01T15:18:01Z</time>
      </trkpt>
      <trkpt lat="47.21047" lon="-1.73213">
        <ele>5</ele>
        <time>2023-11-01T15:18:41Z</time>
      </trkpt>
      <trkpt lat="47.21046" lon="-1.73233">
        <ele>5</ele>
        <time>2023-11-01T15:18:59Z</time>
      </trkpt>
      <trkpt lat="47.21058" lon="-1.73239">
        <ele>5</ele>
        <time>2023-11-01T15:19:16Z</time>
      </trkpt>
      <trkpt lat="47.21086" lon="-1.73231">
        <ele>5</ele>
        <time>2023-11-01T15:19:54Z</time>
      </trkpt>
      <trkpt lat="47.21095" lon="-1.73225">
        <ele>5</ele>
        <time>2023-11-01T15:20:07Z</time>
      </trkpt>
      <trkpt lat="47.21104" lon="-1.73217">
        <ele>6</ele>
        <time>2023-11-01T15:20:21Z</time>
      </trkpt>
      <trkpt lat="47.21108" lon="-1.73208">
        <ele>6</ele>
        <time>2023-11-01T15:20:31Z</time>
      </trkpt>
      <trkpt lat="47.21124" lon="-1.73202">
        <ele>6</ele>
        <time>2023-11-01T15:20:53Z</time>
      </trkpt>
      <trkpt lat="47.21114" lon="-1.73337">
        <ele>5</ele>
        <time>2023-11-01T15:22:56Z</time>
      </trkpt>
      <trkpt lat="47.2111" lon="-1.73486">
        <ele>5</ele>
        <time>2023-11-01T15:25:11Z</time>
      </trkpt>
      <trkpt lat="47.21114" lon="-1.73615">
        <ele>4</ele>
        <time>2023-11-01T15:27:08Z</time>
      </trkpt>
      <trkpt lat="47.21212" lon="-1.7356">
        <ele>4</ele>
        <time>2023-11-01T15:29:28Z</time>
      </trkpt>
      <trkpt lat="47.21296" lon="-1.73513">
        <ele>8</ele>
        <time>2023-11-01T15:31:28Z</time>
      </trkpt>
      <trkpt lat="47.21252" lon="-1.73344">
        <ele>10</ele>
        <time>2023-11-01T15:34:12Z</time>
      </trkpt>
      <trkpt lat="47.2121" lon="-1.73234">
        <ele>8</ele>
        <time>2023-11-01T15:36:06Z</time>
      </trkpt>
      <trkpt lat="47.21192" lon="-1.73183">
        <ele>8</ele>
        <time>2023-11-01T15:36:59Z</time>
      </trkpt>
      <trkpt lat="47.21183" lon="-1.7316">
        <ele>8</ele>
        <time>2023-11-01T15:37:23Z</time>
      </trkpt>
      <trkpt lat="47.21176" lon="-1.73142">
        <ele>8</ele>
        <time>2023-11-01T15:37:41Z</time>
      </trkpt>
      <trkpt lat="47.21166" lon="-1.73136">
        <ele>8</ele>
        <time>2023-11-01T15:37:56Z</time>
      </trkpt>
      <trkpt lat="47.21166" lon="-1.73132">
        <ele>8</ele>
        <time>2023-11-01T15:37:59Z</time>
      </trkpt>
      <trkpt lat="47.21162" lon="-1.73124">
        <ele>7</ele>
        <time>2023-11-01T15:38:08Z</time>
      </trkpt>
      <trkpt lat="47.21142" lon="-1.7309">
        <ele>8</ele>
        <time>2023-11-01T15:38:49Z</time>
      </trkpt>
      <trkpt lat="47.2112" lon="-1.73046">
        <ele>9</ele>
        <time>2023-11-01T15:39:39Z</time>
      </trkpt>
      <trkpt lat="47.21111" lon="-1.73025">
        <ele>9</ele>
        <time>2023-11-01T15:40:01Z</time>
      </trkpt>
      <trkpt lat="47.2109" lon="-1.7303">
        <ele>10</ele>
        <time>2023-11-01T15:40:30Z</time>
      </trkpt>
      <trkpt lat="47.21062" lon="-1.73066">
        <ele>9</ele>
        <time>2023-11-01T15:41:19Z</time>
      </trkpt>
      <trkpt lat="47.21089" lon="-1.73035">
        <ele>9</ele>
        <time>2023-11-01T15:42:05Z</time>
      </trkpt>
      <trkpt lat="47.21073" lon="-1.73048">
        <ele>9</ele>
        <time>2023-11-01T15:42:29Z</time>
      </trkpt>
      <trkpt lat="47.21053" lon="-1.72973">
        <ele>10</ele>
        <time>2023-11-01T15:43:42Z</time>
      </trkpt>
      <trkpt lat="47.21039" lon="-1.72922">
        <ele>11</ele>
        <time>2023-11-01T15:44:32Z</time>
      </trkpt>
      <trkpt lat="47.21032" lon="-1.72893">
        <ele>11</ele>
        <time>2023-11-01T15:45:00Z</time>
      </trkpt>
      <trkpt lat="47.21031" lon="-1.72873">
        <ele>12</ele>
        <time>2023-11-01T15:45:18Z</time>
      </trkpt>
      <trkpt lat="47.21018" lon="-1.72848">
        <ele>12</ele>
        <time>2023-11-01T15:45:47Z</time>
      </trkpt>
      <trkpt lat="47.21026" lon="-1.72836">
        <ele>13</ele>
        <time>2023-11-01T15:46:02Z</time>
      </trkpt>
      <trkpt lat="47.2103" lon="-1.72822">
        <ele>13</ele>
        <time>2023-11-01T15:46:16Z</time>
      </trkpt>
      <trkpt lat="47.21045" lon="-1.72815">
        <ele>14</ele>
        <time>2023-11-01T15:46:37Z</time>
      </trkpt>
      <trkpt lat="47.21066" lon="-1.72772">
        <ele>15</ele>
        <time>2023-11-01T15:47:25Z</time>
      </trkpt>
      <trkpt lat="47.21073" lon="-1.72747">
        <ele>16</ele>
        <time>2023-11-01T15:47:49Z</time>
      </trkpt>
      <trkpt lat="47.21084" lon="-1.72742">
        <ele>16</ele>
        <time>2023-11-01T15:48:05Z</time>
      </trkpt>
      <trkpt lat="47.21091" lon="-1.7271">
        <ele>16</ele>
        <time>2023-11-01T15:48:35Z</time>
      </trkpt>
      <trkpt lat="47.21084" lon="-1.72681">
        <ele>16</ele>
        <time>2023-11-01T15:49:03Z</time>
      </trkpt>
      <trkpt lat="47.21078" lon="-1.72628">
        <ele>16</ele>
        <time>2023-11-01T15:49:52Z</time>
      </trkpt>
      <trkpt lat="47.21074" lon="-1.7258">
        <ele>17</ele>
        <time>2023-11-01T15:50:36Z</time>
      </trkpt>
      <trkpt lat="47.21054" lon="-1.72534">
        <ele>17</ele>
        <time>2023-11-01T15:51:25Z</time>
      </trkpt>
      <trkpt lat="47.21042" lon="-1.72493">
        <ele>17</ele>
        <time>2023-11-01T15:52:06Z</time>
      </trkpt>
      <trkpt lat="47.21034" lon="-1.7245">
        <ele>18</ele>
        <time>2023-11-01T15:52:46Z</time>
      </trkpt>
      <trkpt lat="47.21031" lon="-1.72428">
        <ele>19</ele>
        <time>2023-11-01T15:53:06Z</time>
      </trkpt>
      <trkpt lat="47.21023" lon="-1.72412">
        <ele>18</ele>
        <time>2023-11-01T15:53:24Z</time>
      </trkpt>
      <trkpt lat="47.21022" lon="-1.7238">
        <ele>18</ele>
        <time>2023-11-01T15:53:53Z</time>
      </trkpt>
      <trkpt lat="47.21023" lon="-1.72337">
        <ele>18</ele>
        <time>2023-11-01T15:54:32Z</time>
      </trkpt>
      <trkpt lat="47.21024" lon="-1.72298">
        <ele>19</ele>
        <time>2023-11-01T15:55:08Z</time>
      </trkpt>
      <trkpt lat="47.21021" lon="-1.7226">
        <ele>19</ele>
        <time>2023-11-01T15:55:42Z</time>
      </trkpt>
      <trkpt lat="47.21017" lon="-1.72235">
        <ele>19</ele>
        <time>2023-11-01T15:56:06Z</time>
      </trkpt>
      <trkpt lat="47.21027" lon="-1.72203">
        <ele>20</ele>
        <time>2023-11-01T15:56:38Z</time>
      </trkpt>
      <trkpt lat="47.21028" lon="-1.7219">
        <ele>20</ele>
        <time>2023-11-01T15:56:50Z</time>
      </trkpt>
      <trkpt lat="47.21024" lon="-1.72168">
        <ele>20</ele>
        <time>2023-11-01T15:57:10Z</time>
      </trkpt>
      <trkpt lat="47.21012" lon="-1.72124">
        <ele>19</ele>
        <time>2023-11-01T15:57:53Z</time>
      </trkpt>
      <trkpt lat="47.21007" lon="-1.72081">
        <ele>19</ele>
        <time>2023-11-01T15:58:33Z</time>
      </trkpt>
      <trkpt lat="47.21008" lon="-1.72022">
        <ele>21</ele>
        <time>2023-11-01T15:59:26Z</time>
      </trkpt>
      <trkpt lat="47.21016" lon="-1.7202">
        <ele>22</ele>
        <time>2023-11-01T15:59:37Z</time>
      </trkpt>
      <trkpt lat="47.21011" lon="-1.7201">
        <ele>22</ele>
        <time>2023-11-01T15:59:48Z</time>
      </trkpt>
      <trkpt lat="47.21011" lon="-1.71992">
        <ele>22</ele>
        <time>2023-11-01T16:00:05Z</time>
      </trkpt>
      <trkpt lat="47.21037" lon="-1.71985">
        <ele>23</ele>
        <time>2023-11-01T16:00:40Z</time>
      </trkpt>
      <trkpt lat="47.21112" lon="-1.71969">
        <ele>26</ele>
        <time>2023-11-01T16:02:21Z</time>
      </trkpt>
      <trkpt lat="47.21113" lon="-1.71925">
        <ele>27</ele>
        <time>2023-11-01T16:03:01Z</time>
      </trkpt>
      <trkpt lat="47.21109" lon="-1.71861">
        <ele>28</ele>
        <time>2023-11-01T16:03:59Z</time>
      </trkpt>
      <trkpt lat="47.21102" lon="-1.71814">
        <ele>28</ele>
        <time>2023-11-01T16:04:43Z</time>
      </trkpt>
      <trkpt lat="47.21101" lon="-1.71769">
        <ele>28</ele>
        <time>2023-11-01T16:05:24Z</time>
      </trkpt>
      <trkpt lat="47.21104" lon="-1.71712">
        <ele>28</ele>
        <time>2023-11-01T16:06:15Z</time>
      </trkpt>
      <trkpt lat="47.21107" lon="-1.71655">
        <ele>27</ele>
        <time>2023-11-01T16:07:07Z</time>
      </trkpt>
      <trkpt lat="47.21109" lon="-1.716">
        <ele>25</ele>
        <time>2023-11-01T16:07:57Z</time>
      </trkpt>
      <trkpt lat="47.21107" lon="-1.7149">
        <ele>19</ele>
        <time>2023-11-01T16:09:37Z</time>
      </trkpt>
      <trkpt lat="47.21109" lon="-1.71416">
        <ele>16</ele>
        <time>2023-11-01T16:10:44Z</time>
      </trkpt>
      <trkpt lat="47.21118" lon="-1.71351">
        <ele>19</ele>
        <time>2023-11-01T16:11:44Z</time>
      </trkpt>
      <trkpt lat="47.21131" lon="-1.71338">
        <ele>20</ele>
        <time>2023-11-01T16:12:05Z</time>
      </trkpt>
      <trkpt lat="47.21148" lon="-1.71315">
        <ele>21</ele>
        <time>2023-11-01T16:12:36Z</time>
      </trkpt>
      <trkpt lat="47.21179" lon="-1.71366">
        <ele>23</ele>
        <time>2023-11-01T16:13:38Z</time>
      </trkpt>
      <trkpt lat="47.21198" lon="-1.7139">
        <ele>25</ele>
        <time>2023-11-01T16:14:11Z</time>
      </trkpt>
      <trkpt lat="47.2123" lon="-1.71398">
        <ele>26</ele>
        <time>2023-11-01T16:14:55Z</time>
      </trkpt>
      <trkpt lat="47.21262" lon="-1.71391">
        <ele>27</ele>
        <time>2023-11-01T16:15:38Z</time>
      </trkpt>
      <trkpt lat="47.21309" lon="-1.71376">
        <ele>28</ele>
        <time>2023-11-01T16:16:42Z</time>
      </trkpt>
      <trkpt lat="47.21363" lon="-1.71359">
        <ele>29</ele>
        <time>2023-11-01T16:17:56Z</time>
      </trkpt>
      <trkpt lat="47.21377" lon="-1.71349">
        <ele>29</ele>
        <time>2023-11-01T16:18:17Z</time>
      </trkpt>
      <trkpt lat="47.21379" lon="-1.71358">
        <ele>29</ele>
        <time>2023-11-01T16:18:25Z</time>
      </trkpt>
      <trkpt lat="47.21382" lon="-1.71379">
        <ele>29</ele>
        <time>2023-11-01T16:18:45Z</time>
      </trkpt>
      <trkpt lat="47.21384" lon="-1.71388">
        <ele>29</ele>
        <time>2023-11-01T16:18:53Z</time>
      </trkpt>
      <trkpt lat="47.21383" lon="-1.71395">
        <ele>29</ele>
        <time>2023-11-01T16:19:00Z</time>
      </trkpt>
      <trkpt lat="47.21385" lon="-1.71397">
        <ele>29</ele>
        <time>2023-11-01T16:19:03Z</time>
      </trkpt>
      <trkpt lat="47.2132" lon="-1.71424">
        <ele>29</ele>
        <time>2023-11-01T16:20:33Z</time>
      </trkpt>
      <trkpt lat="47.21334" lon="-1.7152">
        <ele>29</ele>
        <time>2023-11-01T16:22:02Z</time>
      </trkpt>
      <trkpt lat="47.21389" lon="-1.71514">
        <ele>29</ele>
        <time>2023-11-01T16:23:16Z</time>
      </trkpt>
      <trkpt lat="47.21389" lon="-1.7148">
        <ele>29</ele>
        <time>2023-11-01T16:23:46Z</time>
      </trkpt>
      <trkpt lat="47.2139" lon="-1.71465">
        <ele>29</ele>
        <time>2023-11-01T16:24:00Z</time>
      </trkpt>
      <trkpt lat="47.21435" lon="-1.7146">
        <ele>29</ele>
        <time>2023-11-01T16:25:00Z</time>
      </trkpt>
      <trkpt lat="47.21463" lon="-1.71448">
        <ele>28</ele>
        <time>2023-11-01T16:25:39Z</time>
      </trkpt>
      <trkpt lat="47.21476" lon="-1.71441">
        <ele>28</ele>
        <time>2023-11-01T16:25:58Z</time>
      </trkpt>
      <trkpt lat="47.21489" lon="-1.71429">
        <ele>28</ele>
        <time>2023-11-01T16:26:18Z</time>
      </trkpt>
      <trkpt lat="47.21493" lon="-1.7143">
        <ele>28</ele>
        <time>2023-11-01T16:26:24Z</time>
      </trkpt>
      <trkpt lat="47.21487" lon="-1.71398">
        <ele>29</ele>
        <time>2023-11-01T16:26:54Z</time>
      </trkpt>
      <trkpt lat="47.21476" lon="-1.71373">
        <ele>29</ele>
        <time>2023-11-01T16:27:21Z</time>
      </trkpt>
      <trkpt lat="47.21462" lon="-1.71346">
        <ele>30</ele>
        <time>2023-11-01T16:27:52Z</time>
      </trkpt>
      <trkpt lat="47.21446" lon="-1.71322">
        <ele>30</ele>
        <time>2023-11-01T16:28:22Z</time>
      </trkpt>
      <trkpt lat="47.21423" lon="-1.7133">
        <ele>30</ele>
        <time>2023-11-01T16:28:54Z</time>
      </trkpt>
      <trkpt lat="47.21405" lon="-1.71338">
        <ele>30</ele>
        <time>2023-11-01T16:29:19Z</time>
      </trkpt>
      <trkpt lat="47.21384" lon="-1.71298">
        <ele>29</ele>
        <time>2023-11-01T16:30:04Z</time>
      </trkpt>
      <trkpt lat="47.21384" lon="-1.71286">
        <ele>30</ele>
        <time>2023-11-01T16:30:15Z</time>
      </trkpt>
      <trkpt lat="47.21361" lon="-1.71237">
        <ele>29</ele>
        <time>2023-11-01T16:31:09Z</time>
      </trkpt>
      <trkpt lat="47.21342" lon="-1.71193">
        <ele>29</ele>
        <time>2023-11-01T16:31:57Z</time>
      </trkpt>
      <trkpt lat="47.21318" lon="-1.7114">
        <ele>28</ele>
        <time>2023-11-01T16:32:54Z</time>
      </trkpt>
      <trkpt lat="47.21312" lon="-1.71136">
        <ele>28</ele>
        <time>2023-11-01T16:33:03Z</time>
      </trkpt>
      <trkpt lat="47.21275" lon="-1.71129">
        <ele>28</ele>
        <time>2023-11-01T16:33:53Z</time>
      </trkpt>
      <trkpt lat="47.21262" lon="-1.71135">
        <ele>27</ele>
        <time>2023-11-01T16:34:11Z</time>
      </trkpt>
      <trkpt lat="47.21269" lon="-1.71091">
        <ele>29</ele>
        <time>2023-11-01T16:34:52Z</time>
      </trkpt>
      <trkpt lat="47.21274" lon="-1.7103">
        <ele>28</ele>
        <time>2023-11-01T16:35:48Z</time>
      </trkpt>
      <trkpt lat="47.21277" lon="-1.70984">
        <ele>27</ele>
        <time>2023-11-01T16:36:30Z</time>
      </trkpt>
      <trkpt lat="47.21279" lon="-1.70904">
        <ele>26</ele>
        <time>2023-11-01T16:37:42Z</time>
      </trkpt>
      <trkpt lat="47.21287" lon="-1.70826">
        <ele>22</ele>
        <time>2023-11-01T16:38:54Z</time>
      </trkpt>
      <trkpt lat="47.21286" lon="-1.70813">
        <ele>22</ele>
        <time>2023-11-01T16:39:06Z</time>
      </trkpt>
      <trkpt lat="47.21311" lon="-1.70816">
        <ele>22</ele>
        <time>2023-11-01T16:39:39Z</time>
      </trkpt>
      <trkpt lat="47.21336" lon="-1.70754">
        <ele>20</ele>
        <time>2023-11-01T16:40:44Z</time>
      </trkpt>
      <trkpt lat="47.21357" lon="-1.70692">
        <ele>17</ele>
        <time>2023-11-01T16:41:47Z</time>
      </trkpt>
      <trkpt lat="47.2136" lon="-1.70658">
        <ele>16</ele>
        <time>2023-11-01T16:42:18Z</time>
      </trkpt>
      <trkpt lat="47.21362" lon="-1.70616">
        <ele>14</ele>
        <time>2023-11-01T16:42:56Z</time>
      </trkpt>
      <trkpt lat="47.21364" lon="-1.70588">
        <ele>13</ele>
        <time>2023-11-01T16:43:22Z</time>
      </trkpt>
      <trkpt lat="47.21367" lon="-1.7052">
        <ele>11</ele>
        <time>2023-11-01T16:44:24Z</time>
      </trkpt>
      <trkpt lat="47.21367" lon="-1.70453">
        <ele>9</ele>
        <time>2023-11-01T16:45:24Z</time>
      </trkpt>
      <trkpt lat="47.21365" lon="-1.70444">
        <ele>9</ele>
        <time>2023-11-01T16:45:33Z</time>
      </trkpt>
      <trkpt lat="47.21344" lon="-1.704">
        <ele>8</ele>
        <time>2023-11-01T16:46:22Z</time>
      </trkpt>
      <trkpt lat="47.21311" lon="-1.70325">
        <ele>8</ele>
        <time>2023-11-01T16:47:43Z</time>
      </trkpt>
      <trkpt lat="47.2129" lon="-1.70285">
        <ele>8</ele>
        <time>2023-11-01T16:48:29Z</time>
      </trkpt>
      <trkpt lat="47.2129" lon="-1.70344">
        <ele>7</ele>
        <time>2023-11-01T16:49:22Z</time>
      </trkpt>
      <trkpt lat="47.21279" lon="-1.70381">
        <ele>6</ele>
        <time>2023-11-01T16:49:59Z</time>
      </trkpt>
      <trkpt lat="47.21257" lon="-1.70439">
        <ele>6</ele>
        <time>2023-11-01T16:50:59Z</time>
      </trkpt>
      <trkpt lat="47.2124" lon="-1.7047">
        <ele>7</ele>
        <time>2023-11-01T16:51:35Z</time>
      </trkpt>
      <trkpt lat="47.21212" lon="-1.70536">
        <ele>8</ele>
        <time>2023-11-01T16:52:46Z</time>
      </trkpt>
      <trkpt lat="47.21185" lon="-1.70602">
        <ele>10</ele>
        <time>2023-11-01T16:53:55Z</time>
      </trkpt>
      <trkpt lat="47.21162" lon="-1.70666">
        <ele>10</ele>
        <time>2023-11-01T16:55:01Z</time>
      </trkpt>
      <trkpt lat="47.21141" lon="-1.70739">
        <ele>10</ele>
        <time>2023-11-01T16:56:13Z</time>
      </trkpt>
      <trkpt lat="47.2112" lon="-1.70817">
        <ele>9</ele>
        <time>2023-11-01T16:57:29Z</time>
      </trkpt>
      <trkpt lat="47.21101" lon="-1.70856">
        <ele>8</ele>
        <time>2023-11-01T16:58:12Z</time>
      </trkpt>
      <trkpt lat="47.21081" lon="-1.70914">
        <ele>6</ele>
        <time>2023-11-01T16:59:11Z</time>
      </trkpt>
      <trkpt lat="47.21063" lon="-1.71013">
        <ele>7</ele>
        <time>2023-11-01T17:00:44Z</time>
      </trkpt>
      <trkpt lat="47.21051" lon="-1.71061">
        <ele>8</ele>
        <time>2023-11-01T17:01:31Z</time>
      </trkpt>
      <trkpt lat="47.21044" lon="-1.71068">
        <ele>7</ele>
        <time>2023-11-01T17:01:42Z</time>
      </trkpt>
      <trkpt lat="47.21023" lon="-1.7108">
        <ele>7</ele>
        <time>2023-11-01T17:02:12Z</time>
      </trkpt>
      <trkpt lat="47.21018" lon="-1.71104">
        <ele>7</ele>
        <time>2023-11-01T17:02:35Z</time>
      </trkpt>
      <trkpt lat="47.21011" lon="-1.71128">
        <ele>8</ele>
        <time>2023-11-01T17:02:58Z</time>
      </trkpt>
      <trkpt lat="47.20996" lon="-1.71165">
        <ele>8</ele>
        <time>2023-11-01T17:03:38Z</time>
      </trkpt>
      <trkpt lat="47.2098" lon="-1.71205">
        <ele>7</ele>
        <time>2023-11-01T17:04:20Z</time>
      </trkpt>
      <trkpt lat="47.20947" lon="-1.71234">
        <ele>6</ele>
        <time>2023-11-01T17:05:11Z</time>
      </trkpt>
      <trkpt lat="47.20923" lon="-1.71253">
        <ele>5</ele>
        <time>2023-11-01T17:05:47Z</time>
      </trkpt>
      <trkpt lat="47.20883" lon="-1.71278">
        <ele>5</ele>
        <time>2023-11-01T17:06:45Z</time>
      </trkpt>
      <trkpt lat="47.20843" lon="-1.71302">
        <ele>4</ele>
        <time>2023-11-01T17:07:43Z</time>
      </trkpt>
      <trkpt lat="47.20833" lon="-1.71324">
        <ele>5</ele>
        <time>2023-11-01T17:08:07Z</time>
      </trkpt>
      <trkpt lat="47.2083" lon="-1.71352">
        <ele>5</ele>
        <time>2023-11-01T17:08:33Z</time>
      </trkpt>
      <trkpt lat="47.20838" lon="-1.71539">
        <ele>2</ele>
        <time>2023-11-01T17:11:22Z</time>
      </trkpt>
      <trkpt lat="47.20832" lon="-1.71663">
        <ele>5</ele>
        <time>2023-11-01T17:13:15Z</time>
      </trkpt>
      <trkpt lat="47.20841" lon="-1.71827">
        <ele>4</ele>
        <time>2023-11-01T17:15:44Z</time>
      </trkpt>
      <trkpt lat="47.20853" lon="-1.72014">
        <ele>7</ele>
        <time>2023-11-01T17:18:35Z</time>
      </trkpt>
      <trkpt lat="47.20899" lon="-1.71985">
        <ele>10</ele>
        <time>2023-11-01T17:19:41Z</time>
      </trkpt>
    </trkseg>
  </trk>
</gpx>